Anatone, WA

7:12 PM PDT on September 17, 2014 (GMT -0700)
Montgomery Ridge Road | Change Station
CLOSE
Current Station
Personal Weather Station
Location: Anatone, WA
Elevation: 3300 ft
Nearby Weather Stations

Elev 3300 ft 46.12 °N, 117.01 °W | Updated 3 minutes ago

Partly Cloudy
Partly Cloudy
70.9 °F
Feels Like 77 °F
N
2.0
Wind Variable Wind from WNW
Gusts 3.1 mph

Today
High -- | Low -- °F
--% Chance of Precip.
Yesterday
High -- | Low -- °F
Precip. -- in
6:29 AM 6:55 PM
Waning Crescent, 31% visible
Pressure 29.62 in
Visibility 5.0 miles
Clouds Clear
Heat Index 77 °F
Dew Point 41 °F
Humidity 34%
Rainfall 0.00 in
Snow Depth 0 in , 0 in , 0 in
UV 0 out of 12
Pollen 7.10 out of 12
Air Quality Not available.
Flu Activity Not available.
METAR KLWS 180156Z 00000KT 5SM FU CLR 28/07 A2964 RMK AO2 SLP029 T02780067

More Conditions Fewer Conditions

Pressure 29.62 in
Visibility 5.0 miles
Clouds Clear
Heat Index 77 °F
Dew Point 41 °F
Humidity 34%
Rainfall 0.00 in
Snow Depth 0 in , 0 in , 0 in
UV 0 out of 12
Pollen 7.10 out of 12
Air Quality Not available.
Flu Activity Not available.
METAR KLWS 180156Z 00000KT 5SM FU CLR 28/07 A2964 RMK AO2 SLP029 T02780067

More Conditions Fewer Conditions

10-Day Weather Forecast

Almanac

Astronomy

Sep. 17, 2014 Rise Set
Actual Time 6:29 AM PDT 6:55 PM PDT
Civil Twilight 5:58 AM PDT 7:25 PM PDT
Nautical Twilight 5:23 AM PDT 8:00 PM PDT
Astronomical Twilight 4:46 AM PDT 8:37 PM PDT
Moon 12:18 AM PDT (9/17) 3:21 PM PDT (9/17)
Length of Visible Light 13h 26m
Length of Day
12h 26m
Tomorrow will be 3m 14s shorter.
Waning Crescent, 31% of the Moon is Illuminated
Today
Waning Crescent
Sep 24
New
Oct 1
First Quarter
Oct 8
Full
Oct 15
Last Quarter

Today's Extremes

State Highs State Lows

Community

WunderPhotos

Upload Photos

1,754,266 photos uploaded!

Nearby

Snow Depth

Station Depth Elevation
Morse Lake 0 in 5400 ft
Sasse Ridge 0 in 4200 ft
Alpine Meadows 0 in 3500 ft
Meadows Pass 0 in 3500 ft
Wells Creek 0 in 4200 ft

Earthquake Activity

City Distance Mag. Time & Date
No recent earthquake activity has been reported nearby.
Minimum magnitude displayed is 2.5.

Coastal Water Temperatures

Place Temperature
No Stations Reporting

Nearby Weather Stations